createdAt,value
2022-09-17T00:00:41.598Z,100.00
2022-09-17T00:05:44.586Z,100.00
2022-09-17T00:10:46.716Z,100.00
2022-09-17T00:15:49.007Z,100.00
2022-09-17T00:20:51.559Z,100.00
2022-09-17T00:25:53.729Z,100.00
2022-09-17T00:30:56.128Z,100.00
2022-09-17T00:36:02.473Z,100.00
2022-09-17T00:41:05.388Z,100.00
2022-09-17T00:46:31.798Z,100.00
2022-09-17T00:51:42.351Z,100.00
2022-09-17T00:56:44.958Z,100.00
2022-09-17T01:01:47.141Z,100.00
2022-09-17T01:07:08.021Z,100.00
2022-09-17T01:12:51.245Z,100.00
2022-09-17T01:18:19.323Z,100.00
2022-09-17T01:23:58.298Z,100.00
2022-09-17T01:29:09.852Z,100.00
2022-09-17T01:34:32.143Z,100.00
2022-09-17T01:39:34.714Z,100.00
2022-09-17T01:44:52.618Z,100.00
2022-09-17T01:50:02.880Z,100.00
2022-09-17T01:55:10.047Z,100.00
2022-09-17T02:00:15.986Z,100.00
2022-09-17T02:05:42.481Z,100.00
2022-09-17T02:10:48.408Z,100.00
2022-09-17T02:15:57.770Z,100.00
2022-09-17T02:21:10.884Z,100.00
2022-09-17T02:26:18.813Z,100.00
2022-09-17T02:31:21.335Z,100.00
2022-09-17T02:36:24.955Z,100.00
2022-09-17T02:41:36.753Z,100.00
2022-09-17T02:46:57.964Z,100.00
2022-09-17T02:52:06.208Z,100.00
2022-09-17T02:57:16.823Z,100.00
2022-09-17T03:02:25.747Z,100.00
2022-09-17T03:07:29.415Z,100.00
2022-09-17T03:12:32.146Z,100.00
2022-09-17T03:17:35.472Z,100.00
2022-09-17T03:22:37.677Z,100.00
2022-09-17T03:27:39.820Z,100.00
2022-09-17T03:32:41.961Z,100.00
2022-09-17T03:37:44.051Z,100.00
2022-09-17T03:42:46.317Z,100.00
2022-09-17T03:47:48.776Z,100.00
2022-09-17T03:52:51.029Z,100.00
2022-09-17T03:57:53.135Z,100.00
2022-09-17T04:02:55.217Z,100.00
2022-09-17T04:07:57.705Z,100.00
2022-09-17T04:12:59.970Z,100.00
2022-09-17T04:18:02.088Z,100.00
2022-09-17T04:23:04.401Z,100.00
2022-09-17T04:28:07.410Z,100.00
2022-09-17T04:33:10.191Z,100.00
2022-09-17T04:38:13.998Z,100.00
2022-09-17T04:43:16.159Z,100.00
2022-09-17T04:48:18.350Z,100.00
2022-09-17T04:53:20.538Z,100.00
2022-09-17T04:58:22.656Z,100.00
2022-09-17T05:03:24.910Z,100.00
2022-09-17T05:08:26.975Z,100.00
2022-09-17T05:13:29.149Z,100.00
2022-09-17T05:18:31.751Z,100.00
2022-09-17T05:23:47.702Z,100.00
2022-09-17T05:28:49.908Z,100.00
2022-09-17T05:33:52.241Z,100.00
2022-09-17T05:38:54.464Z,100.00
2022-09-17T05:43:56.650Z,100.00
2022-09-17T05:48:58.872Z,100.00
2022-09-17T05:54:02.522Z,83.51
2022-09-17T05:59:04.845Z,56.84
2022-09-17T06:04:08.228Z,42.95
2022-09-17T06:15:21.995Z,34.51
2022-09-17T06:20:24.025Z,35.00
2022-09-17T06:25:26.810Z,35.37
2022-09-17T06:30:29.119Z,35.82
2022-09-17T06:35:31.158Z,38.21
2022-09-17T06:40:33.337Z,48.65
2022-09-17T06:45:35.461Z,37.01
2022-09-17T06:50:42.493Z,34.99
2022-09-17T06:55:45.492Z,34.92
2022-09-17T07:00:47.983Z,39.45
2022-09-17T07:06:13.002Z,42.68
2022-09-17T07:11:24.960Z,44.50
2022-09-17T07:16:30.539Z,49.26
2022-09-17T07:21:38.631Z,57.48
2022-09-17T07:26:43.141Z,53.98
2022-09-17T07:31:46.406Z,64.00
2022-09-17T07:36:49.213Z,56.77
2022-09-17T07:41:55.496Z,61.33
2022-09-17T07:47:04.963Z,56.39
2022-09-17T07:52:07.517Z,56.68
2022-09-17T07:57:09.856Z,54.61
2022-09-17T08:02:24.417Z,50.91
2022-09-17T08:07:30.187Z,43.04
2022-09-17T08:12:32.447Z,40.95
2022-09-17T08:17:38.388Z,42.26
2022-09-17T08:22:41.212Z,42.03
2022-09-17T08:27:51.437Z,43.33
2022-09-17T08:32:57.140Z,40.09
2022-09-17T08:38:02.228Z,38.14
2022-09-17T08:43:07.702Z,38.63
2022-09-17T08:48:14.971Z,38.60
2022-09-17T08:53:32.399Z,32.76
2022-09-17T08:58:41.252Z,31.87
2022-09-17T09:04:20.794Z,29.92
2022-09-17T09:09:28.379Z,30.26
2022-09-17T09:14:44.467Z,29.51
2022-09-17T09:19:50.262Z,26.92
2022-09-17T09:25:24.865Z,28.18
2022-09-17T09:30:53.959Z,30.19
2022-09-17T09:35:56.314Z,30.07
2022-09-17T09:41:19.618Z,28.44
2022-09-17T09:46:52.336Z,27.53
2022-09-17T09:52:00.787Z,24.95
2022-09-17T09:57:32.397Z,25.49
2022-09-17T10:02:34.923Z,24.60
2022-09-17T10:07:45.273Z,24.91
2022-09-17T10:12:47.585Z,25.82
2022-09-17T10:17:49.668Z,25.34
2022-09-17T10:22:51.932Z,26.86
2022-09-17T10:27:54.501Z,28.29
2022-09-17T10:33:44.320Z,30.51
2022-09-17T10:38:47.508Z,32.46
2022-09-17T10:43:50.799Z,32.00
2022-09-17T10:49:08.389Z,32.99
2022-09-17T10:54:13.679Z,37.18
2022-09-17T10:59:25.171Z,39.69
2022-09-17T11:04:49.395Z,42.28
2022-09-17T11:10:13.238Z,51.26
2022-09-17T11:15:21.517Z,56.46
2022-09-17T11:20:42.546Z,66.92
2022-09-17T11:25:56.105Z,72.99
2022-09-17T11:31:24.383Z,77.82
2022-09-17T11:36:33.482Z,80.77
2022-09-17T11:41:44.207Z,80.39
2022-09-17T11:53:57.345Z,87.12
2022-09-17T11:59:06.434Z,97.51
2022-09-17T12:04:28.139Z,100.00
2022-09-17T12:10:22.343Z,100.00
2022-09-17T12:15:35.691Z,100.00
2022-09-17T12:20:42.430Z,100.00
2022-09-17T12:26:10.768Z,100.00
2022-09-17T12:31:34.429Z,100.00
2022-09-17T12:37:00.405Z,100.00
2022-09-17T12:42:21.817Z,100.00
2022-09-17T12:47:42.577Z,100.00
2022-09-17T12:53:14.518Z,100.00
2022-09-17T12:58:38.885Z,100.00
2022-09-17T13:03:55.310Z,100.00
2022-09-17T13:09:28.811Z,100.00
2022-09-17T13:15:08.116Z,100.00
2022-09-17T13:20:22.447Z,100.00
2022-09-17T13:25:27.377Z,100.00
2022-09-17T13:30:59.915Z,100.00
2022-09-17T13:36:03.961Z,100.00
2022-09-17T13:41:22.018Z,100.00
2022-09-17T13:46:29.399Z,100.00
2022-09-17T13:51:32.354Z,100.00
2022-09-17T13:56:39.299Z,100.00
2022-09-17T14:02:05.000Z,100.00
2022-09-17T14:07:24.049Z,97.62
2022-09-17T14:12:41.691Z,99.90
2022-09-17T14:17:52.302Z,94.77
2022-09-17T14:23:00.154Z,97.26
2022-09-17T14:28:26.741Z,96.58
2022-09-17T14:33:32.326Z,100.00
2022-09-17T14:38:38.789Z,100.00
2022-09-17T14:43:57.666Z,100.00
2022-09-17T14:49:21.247Z,100.00
2022-09-17T14:54:32.355Z,99.98
2022-09-17T14:59:37.492Z,99.54
2022-09-17T15:04:43.930Z,100.00
2022-09-17T15:09:46.076Z,100.00
2022-09-17T15:14:48.637Z,100.00
2022-09-17T15:19:55.069Z,100.00
2022-09-17T15:25:03.854Z,100.00
2022-09-17T15:30:10.322Z,100.00
2022-09-17T15:35:15.892Z,100.00
2022-09-17T15:40:34.984Z,100.00
2022-09-17T15:45:39.390Z,100.00
2022-09-17T15:50:55.978Z,100.00
2022-09-17T15:56:08.730Z,100.00
2022-09-17T16:01:17.669Z,100.00
2022-09-17T16:06:24.987Z,100.00
2022-09-17T16:11:30.431Z,100.00
2022-09-17T16:16:36.011Z,100.00
2022-09-17T16:21:38.623Z,100.00
2022-09-17T16:26:42.070Z,100.00
2022-09-17T16:31:49.465Z,100.00
2022-09-17T16:37:20.049Z,100.00
2022-09-17T16:42:26.485Z,100.00
2022-09-17T16:47:39.598Z,100.00
2022-09-17T16:52:56.255Z,100.00
2022-09-17T16:57:59.288Z,100.00
2022-09-17T17:03:01.805Z,100.00
2022-09-17T17:08:06.740Z,100.00
2022-09-17T17:13:09.102Z,100.00
2022-09-17T17:18:11.462Z,100.00
2022-09-17T17:23:13.900Z,100.00
2022-09-17T17:28:20.592Z,100.00
2022-09-17T17:33:22.815Z,100.00
2022-09-17T17:38:25.058Z,100.00
2022-09-17T17:43:32.357Z,100.00
2022-09-17T17:48:35.757Z,100.00
2022-09-17T17:53:41.951Z,100.00
2022-09-17T17:58:44.607Z,100.00
2022-09-17T18:03:47.577Z,100.00
2022-09-17T18:08:49.733Z,100.00
2022-09-17T18:13:54.290Z,100.00
2022-09-17T18:18:59.285Z,100.00
2022-09-17T18:24:03.568Z,100.00
2022-09-17T18:29:08.268Z,100.00
2022-09-17T18:34:16.137Z,100.00
2022-09-17T18:44:41.472Z,100.00
2022-09-17T18:49:44.617Z,100.00
2022-09-17T18:55:05.560Z,100.00
2022-09-17T19:00:12.932Z,100.00
2022-09-17T19:05:17.383Z,100.00
2022-09-17T19:10:23.327Z,100.00
2022-09-17T19:15:27.620Z,100.00
2022-09-17T19:20:40.232Z,100.00
2022-09-17T19:25:50.272Z,100.00
2022-09-17T19:30:56.007Z,100.00
2022-09-17T19:36:08.902Z,100.00
2022-09-17T19:41:16.201Z,100.00
2022-09-17T19:46:23.498Z,100.00
2022-09-17T19:51:30.818Z,100.00
2022-09-17T20:01:53.650Z,100.00
2022-09-17T20:07:06.798Z,100.00
2022-09-17T20:12:10.216Z,100.00
2022-09-17T20:17:41.990Z,100.00
2022-09-17T20:22:44.217Z,100.00
2022-09-17T20:27:46.325Z,100.00
2022-09-17T20:32:48.826Z,100.00
2022-09-17T20:43:13.385Z,100.00
2022-09-17T20:48:15.506Z,100.00
2022-09-17T20:53:17.794Z,100.00
2022-09-17T20:58:20.407Z,100.00
2022-09-17T21:03:23.185Z,100.00
2022-09-17T21:08:25.454Z,100.00
2022-09-17T21:13:27.492Z,100.00
2022-09-17T21:18:30.181Z,100.00
2022-09-17T21:23:35.567Z,100.00
2022-09-17T21:28:38.634Z,96.46
2022-09-17T21:33:41.893Z,96.42
2022-09-17T21:38:44.595Z,96.19
2022-09-17T21:43:47.312Z,94.71
2022-09-17T21:48:54.318Z,100.00
2022-09-17T21:54:02.136Z,100.00
2022-09-17T21:59:07.046Z,100.00
2022-09-17T22:04:15.098Z,100.00
2022-09-17T22:09:20.838Z,100.00
2022-09-17T22:14:24.642Z,100.00
2022-09-17T22:19:27.010Z,100.00
2022-09-17T22:24:29.282Z,100.00
2022-09-17T22:29:33.869Z,100.00
2022-09-17T22:34:36.047Z,100.00
2022-09-17T22:39:38.532Z,100.00
2022-09-17T22:44:42.206Z,100.00
2022-09-17T22:49:44.605Z,100.00
2022-09-17T22:54:46.705Z,100.00
2022-09-17T22:59:48.760Z,100.00
2022-09-17T23:04:51.015Z,100.00
2022-09-17T23:09:53.270Z,100.00
2022-09-17T23:14:55.476Z,100.00
2022-09-17T23:19:58.130Z,100.00
2022-09-17T23:25:00.164Z,100.00
2022-09-17T23:30:02.469Z,100.00
2022-09-17T23:35:04.946Z,100.00
2022-09-17T23:40:08.442Z,100.00
2022-09-17T23:45:10.882Z,100.00
2022-09-17T23:50:13.575Z,100.00
2022-09-17T23:55:15.729Z,100.00
